QFA55 PAFA-PAVD
Flight info
| Callsign | QFA55 |
|---|---|
| Flight time | 1h 5m |
| Altitude | 35000 |
| Route | RDFLG5 SHMMR HRDNG BIG J167 JOH |
| Aircraft | B738/M-SDE2E3FGHIRWXY/LB1 |
Departure
| Time | 2026-04-25 10:06 |
|---|---|
| Airport | Fairbanks International Airport (PAFA) |
Arrival
| Time | 2026-04-25 11:12 |
|---|---|
| Airport | Valdez Pioneer Field (PAVD) |
| Time | Latitude | Longitude | Altitude | Speed | Heading |
|---|---|---|---|---|---|
| 2026-04-25 09:26 | 64.81640 | -147.86852 | 443 ft | 0 kts | 14° |
| 2026-04-25 09:58 | 64.81626 | -147.86861 | 442 ft | 3 kts | 14° |
| 2026-04-25 09:59 | 64.81602 | -147.86874 | 442 ft | 3 kts | 14° |
| 2026-04-25 09:59 | 64.81579 | -147.86888 | 442 ft | 3 kts | 14° |
| 2026-04-25 09:59 | 64.81559 | -147.86903 | 442 ft | 2 kts | 58° |
| 2026-04-25 09:59 | 64.81563 | -147.86945 | 442 ft | 4 kts | 122° |
| 2026-04-25 10:00 | 64.81565 | -147.86954 | 442 ft | 0 kts | 121° |
| 2026-04-25 10:01 | 64.81564 | -147.86950 | 442 ft | 1 kts | 122° |
| 2026-04-25 10:01 | 64.81535 | -147.86858 | 442 ft | 11 kts | 127° |
| 2026-04-25 10:01 | 64.81467 | -147.86748 | 442 ft | 14 kts | 185° |
| 2026-04-25 10:02 | 64.81369 | -147.86880 | 442 ft | 18 kts | 218° |
| 2026-04-25 10:02 | 64.81263 | -147.87078 | 442 ft | 21 kts | 218° |
| 2026-04-25 10:02 | 64.81139 | -147.87307 | 442 ft | 24 kts | 218° |
| 2026-04-25 10:02 | 64.81003 | -147.87555 | 442 ft | 25 kts | 218° |
| 2026-04-25 10:03 | 64.80865 | -147.87805 | 442 ft | 25 kts | 217° |
| 2026-04-25 10:03 | 64.80729 | -147.88055 | 442 ft | 25 kts | 218° |
| 2026-04-25 10:03 | 64.80593 | -147.88307 | 442 ft | 25 kts | 217° |
| 2026-04-25 10:03 | 64.80457 | -147.88554 | 442 ft | 21 kts | 218° |
| 2026-04-25 10:04 | 64.80380 | -147.88698 | 442 ft | 2 kts | 218° |
| 2026-04-25 10:04 | 64.80363 | -147.88718 | 442 ft | 8 kts | 197° |
| 2026-04-25 10:04 | 64.80306 | -147.88663 | 442 ft | 9 kts | 130° |
| 2026-04-25 10:05 | 64.80293 | -147.88532 | 442 ft | 10 kts | 52° |
| 2026-04-25 10:05 | 64.80356 | -147.88413 | 442 ft | 12 kts | 37° |
| 2026-04-25 10:05 | 64.80434 | -147.88273 | 442 ft | 27 kts | 38° |
| 2026-04-25 10:05 | 64.80755 | -147.87678 | 443 ft | 89 kts | 38° |
| 2026-04-25 10:06 | 64.81387 | -147.86526 | 443 ft | 140 kts | 38° |
| 2026-04-25 10:06 | 64.82258 | -147.84906 | 566 ft | 170 kts | 38° |
| 2026-04-25 10:06 | 64.83145 | -147.83195 | 1265 ft | 160 kts | 39° |
| 2026-04-25 10:06 | 64.83942 | -147.81401 | 1863 ft | 165 kts | 59° |
| 2026-04-25 10:07 | 64.84170 | -147.78671 | 2200 ft | 181 kts | 102° |
| 2026-04-25 10:07 | 64.83472 | -147.76212 | 2676 ft | 193 kts | 147° |
| 2026-04-25 10:07 | 64.82134 | -147.75328 | 3188 ft | 205 kts | 170° |
| 2026-04-25 10:07 | 64.80703 | -147.74843 | 3829 ft | 217 kts | 171° |
| 2026-04-25 10:08 | 64.79135 | -147.74113 | 4196 ft | 239 kts | 159° |
| 2026-04-25 10:08 | 64.77603 | -147.72389 | 4866 ft | 250 kts | 154° |
| 2026-04-25 10:08 | 64.76022 | -147.70551 | 5593 ft | 257 kts | 155° |
| 2026-04-25 10:08 | 64.74389 | -147.68771 | 6399 ft | 261 kts | 156° |
| 2026-04-25 10:09 | 64.72725 | -147.67027 | 7189 ft | 264 kts | 156° |
| 2026-04-25 10:09 | 64.71037 | -147.65271 | 7959 ft | 268 kts | 156° |
| 2026-04-25 10:09 | 64.69332 | -147.63451 | 8736 ft | 270 kts | 152° |
| 2026-04-25 10:09 | 64.67810 | -147.60867 | 9494 ft | 274 kts | 136° |
| 2026-04-25 10:10 | 64.66652 | -147.57318 | 10235 ft | 279 kts | 124° |
| 2026-04-25 10:10 | 64.65601 | -147.53313 | 10542 ft | 298 kts | 123° |
| 2026-04-25 10:10 | 64.64508 | -147.49045 | 10861 ft | 314 kts | 123° |
| 2026-04-25 10:10 | 64.63361 | -147.44561 | 11235 ft | 328 kts | 123° |
| 2026-04-25 10:11 | 64.62171 | -147.39949 | 11863 ft | 334 kts | 124° |
| 2026-04-25 10:11 | 64.60955 | -147.35280 | 12565 ft | 338 kts | 124° |
| 2026-04-25 10:11 | 64.59725 | -147.30579 | 13299 ft | 341 kts | 124° |
| 2026-04-25 10:11 | 64.58487 | -147.25854 | 14036 ft | 344 kts | 125° |
| 2026-04-25 10:12 | 64.57238 | -147.21089 | 14764 ft | 346 kts | 126° |
| 2026-04-25 10:12 | 64.55977 | -147.16284 | 15488 ft | 349 kts | 126° |
| 2026-04-25 10:12 | 64.53422 | -147.06582 | 16936 ft | 355 kts | 126° |
| 2026-04-25 10:13 | 64.52127 | -147.01684 | 17642 ft | 358 kts | 126° |
| 2026-04-25 10:13 | 64.50819 | -146.96751 | 18343 ft | 360 kts | 127° |
| 2026-04-25 10:13 | 64.49498 | -146.91775 | 19028 ft | 363 kts | 127° |
| 2026-04-25 10:13 | 64.48167 | -146.86770 | 19701 ft | 366 kts | 127° |
| 2026-04-25 10:14 | 64.46823 | -146.81732 | 20354 ft | 368 kts | 127° |
| 2026-04-25 10:14 | 64.45471 | -146.76675 | 20984 ft | 371 kts | 128° |
| 2026-04-25 10:14 | 64.44104 | -146.71573 | 21606 ft | 373 kts | 128° |
| 2026-04-25 10:14 | 64.42730 | -146.66456 | 22207 ft | 375 kts | 128° |
| 2026-04-25 10:15 | 64.41346 | -146.61312 | 22783 ft | 378 kts | 128° |
| 2026-04-25 10:15 | 64.39951 | -146.56143 | 23336 ft | 380 kts | 129° |
| 2026-04-25 10:15 | 64.38543 | -146.50938 | 23863 ft | 383 kts | 129° |
| 2026-04-25 10:15 | 64.37126 | -146.45708 | 24396 ft | 385 kts | 129° |
| 2026-04-25 10:16 | 64.35701 | -146.40460 | 24910 ft | 387 kts | 130° |
| 2026-04-25 10:16 | 64.34262 | -146.35185 | 25392 ft | 389 kts | 130° |
| 2026-04-25 10:16 | 64.32813 | -146.29886 | 25878 ft | 391 kts | 130° |
| 2026-04-25 10:16 | 64.31333 | -146.24518 | 26326 ft | 392 kts | 133° |
| 2026-04-25 10:17 | 64.29625 | -146.19764 | 26577 ft | 388 kts | 143° |
| 2026-04-25 10:17 | 64.27565 | -146.15835 | 26985 ft | 381 kts | 150° |
| 2026-04-25 10:17 | 64.26120 | -146.13422 | 27363 ft | 379 kts | 151° |
| 2026-04-25 10:17 | 64.23278 | -146.08751 | 27973 ft | 379 kts | 152° |
| 2026-04-25 10:18 | 64.21095 | -146.05203 | 28369 ft | 380 kts | 152° |
| 2026-04-25 10:18 | 64.19667 | -146.02882 | 28635 ft | 380 kts | 152° |
| 2026-04-25 10:18 | 64.17509 | -145.99362 | 29001 ft | 381 kts | 152° |
| 2026-04-25 10:18 | 64.15344 | -145.95828 | 29366 ft | 382 kts | 152° |
| 2026-04-25 10:19 | 64.13178 | -145.92296 | 29688 ft | 383 kts | 152° |
| 2026-04-25 10:19 | 64.11005 | -145.88767 | 29970 ft | 384 kts | 152° |
| 2026-04-25 10:19 | 64.08822 | -145.85234 | 30261 ft | 385 kts | 153° |
| 2026-04-25 10:19 | 64.06623 | -145.81688 | 30393 ft | 389 kts | 153° |
| 2026-04-25 10:20 | 64.04409 | -145.78119 | 30681 ft | 389 kts | 152° |
| 2026-04-25 10:20 | 64.02151 | -145.74763 | 30859 ft | 385 kts | 159° |
| 2026-04-25 10:20 | 63.99696 | -145.72415 | 30980 ft | 380 kts | 168° |
| 2026-04-25 10:20 | 63.97118 | -145.71236 | 31184 ft | 376 kts | 178° |
| 2026-04-25 10:21 | 63.94521 | -145.70781 | 31476 ft | 374 kts | 179° |
| 2026-04-25 10:21 | 63.91932 | -145.70384 | 31780 ft | 372 kts | 179° |
| 2026-04-25 10:21 | 63.89353 | -145.70013 | 32042 ft | 371 kts | 179° |
| 2026-04-25 10:21 | 63.86779 | -145.69639 | 32299 ft | 370 kts | 179° |
| 2026-04-25 10:22 | 63.84212 | -145.69251 | 32548 ft | 369 kts | 179° |
| 2026-04-25 10:22 | 63.81654 | -145.68855 | 32786 ft | 369 kts | 179° |
| 2026-04-25 10:22 | 63.79093 | -145.68460 | 33017 ft | 368 kts | 179° |
| 2026-04-25 10:22 | 63.76546 | -145.68072 | 33252 ft | 367 kts | 179° |
| 2026-04-25 10:23 | 63.73999 | -145.67689 | 33457 ft | 367 kts | 179° |
| 2026-04-25 10:23 | 63.71453 | -145.67307 | 33664 ft | 366 kts | 179° |
| 2026-04-25 10:23 | 63.68909 | -145.66925 | 33866 ft | 366 kts | 179° |
| 2026-04-25 10:23 | 63.66374 | -145.66543 | 34077 ft | 365 kts | 179° |
| 2026-04-25 10:24 | 63.63841 | -145.66158 | 34260 ft | 365 kts | 179° |
| 2026-04-25 10:24 | 63.61304 | -145.65772 | 34398 ft | 366 kts | 179° |
| 2026-04-25 10:24 | 63.58759 | -145.65386 | 34528 ft | 367 kts | 179° |
| 2026-04-25 10:24 | 63.56204 | -145.65000 | 34662 ft | 368 kts | 179° |
| 2026-04-25 10:25 | 63.53644 | -145.64614 | 34795 ft | 369 kts | 179° |
| 2026-04-25 10:25 | 63.51044 | -145.64223 | 34926 ft | 370 kts | 179° |
| 2026-04-25 10:25 | 63.48474 | -145.63836 | 35065 ft | 371 kts | 179° |
| 2026-04-25 10:26 | 63.43281 | -145.63059 | 35090 ft | 377 kts | 179° |
| 2026-04-25 10:26 | 63.38031 | -145.62274 | 35097 ft | 379 kts | 179° |
| 2026-04-25 10:27 | 63.32761 | -145.61488 | 35101 ft | 379 kts | 179° |
| 2026-04-25 10:27 | 63.27508 | -145.60709 | 35104 ft | 377 kts | 179° |
| 2026-04-25 10:28 | 63.22302 | -145.59940 | 35108 ft | 373 kts | 179° |
| 2026-04-25 10:28 | 63.17131 | -145.59179 | 35112 ft | 372 kts | 179° |
| 2026-04-25 10:29 | 63.11973 | -145.58424 | 35117 ft | 372 kts | 178° |
| 2026-04-25 10:29 | 63.06806 | -145.57669 | 35121 ft | 373 kts | 178° |
| 2026-04-25 10:30 | 63.01625 | -145.56914 | 35126 ft | 373 kts | 178° |
| 2026-04-25 10:30 | 62.96441 | -145.56162 | 35130 ft | 374 kts | 178° |
| 2026-04-25 10:31 | 62.91247 | -145.55411 | 35129 ft | 374 kts | 178° |
| 2026-04-25 10:31 | 62.86050 | -145.54662 | 35131 ft | 374 kts | 178° |
| 2026-04-25 10:32 | 62.80827 | -145.53912 | 35156 ft | 374 kts | 178° |
| 2026-04-25 10:32 | 62.75634 | -145.53170 | 35165 ft | 374 kts | 178° |
| 2026-04-25 10:33 | 62.70443 | -145.52430 | 35170 ft | 374 kts | 178° |
| 2026-04-25 10:33 | 62.65246 | -145.51691 | 35173 ft | 374 kts | 178° |
| 2026-04-25 10:34 | 62.60054 | -145.50956 | 35175 ft | 374 kts | 178° |
| 2026-04-25 10:34 | 62.54860 | -145.50224 | 35177 ft | 374 kts | 178° |
| 2026-04-25 10:35 | 62.49670 | -145.49494 | 35179 ft | 374 kts | 178° |
| 2026-04-25 10:35 | 62.44480 | -145.48767 | 35180 ft | 374 kts | 178° |
| 2026-04-25 10:36 | 62.39288 | -145.48043 | 35180 ft | 374 kts | 178° |
| 2026-04-25 10:36 | 62.34096 | -145.47320 | 35180 ft | 374 kts | 178° |
| 2026-04-25 10:37 | 62.28904 | -145.46601 | 35180 ft | 374 kts | 178° |
| 2026-04-25 10:37 | 62.23712 | -145.45884 | 35180 ft | 374 kts | 178° |
| 2026-04-25 10:38 | 62.18512 | -145.45168 | 35179 ft | 375 kts | 178° |
| 2026-04-25 10:38 | 62.13345 | -145.46245 | 35192 ft | 374 kts | 196° |
| 2026-04-25 10:39 | 62.08395 | -145.49757 | 35182 ft | 375 kts | 197° |
| 2026-04-25 10:39 | 62.03465 | -145.53394 | 35181 ft | 374 kts | 197° |
| 2026-04-25 10:40 | 61.98538 | -145.56941 | 35182 ft | 374 kts | 197° |
| 2026-04-25 10:40 | 61.93609 | -145.60470 | 35188 ft | 374 kts | 197° |
| 2026-04-25 10:41 | 61.88681 | -145.64008 | 35189 ft | 374 kts | 197° |
| 2026-04-25 10:41 | 61.83754 | -145.67527 | 35195 ft | 374 kts | 197° |
| 2026-04-25 10:42 | 61.78828 | -145.71031 | 35202 ft | 374 kts | 197° |
| 2026-04-25 10:42 | 61.73898 | -145.74527 | 35210 ft | 374 kts | 197° |
| 2026-04-25 10:43 | 61.68968 | -145.78013 | 35222 ft | 374 kts | 197° |
| 2026-04-25 10:43 | 61.64041 | -145.81484 | 35234 ft | 374 kts | 197° |
| 2026-04-25 10:44 | 61.59107 | -145.84947 | 35248 ft | 374 kts | 197° |
| 2026-04-25 10:44 | 61.54172 | -145.88401 | 35263 ft | 374 kts | 197° |
| 2026-04-25 10:45 | 61.49224 | -145.91851 | 35280 ft | 375 kts | 197° |
| 2026-04-25 10:45 | 61.44266 | -145.95297 | 34791 ft | 373 kts | 196° |
| 2026-04-25 10:45 | 61.41835 | -145.96986 | 34316 ft | 365 kts | 196° |
| 2026-04-25 10:46 | 61.39448 | -145.98640 | 33868 ft | 358 kts | 196° |
| 2026-04-25 10:46 | 61.37079 | -146.00278 | 33427 ft | 350 kts | 196° |
| 2026-04-25 10:46 | 61.34786 | -146.01859 | 33000 ft | 344 kts | 196° |
| 2026-04-25 10:46 | 61.32536 | -146.03408 | 32582 ft | 337 kts | 195° |
| 2026-04-25 10:47 | 61.30330 | -146.04925 | 32171 ft | 331 kts | 195° |
| 2026-04-25 10:47 | 61.28158 | -146.06417 | 31767 ft | 326 kts | 195° |
| 2026-04-25 10:47 | 61.26023 | -146.07882 | 31368 ft | 321 kts | 195° |
| 2026-04-25 10:47 | 61.23921 | -146.09321 | 30976 ft | 316 kts | 195° |
| 2026-04-25 10:48 | 61.21851 | -146.10737 | 30589 ft | 311 kts | 195° |
| 2026-04-25 10:48 | 61.19816 | -146.12127 | 30209 ft | 307 kts | 195° |
| 2026-04-25 10:48 | 61.17736 | -146.13539 | 29824 ft | 320 kts | 195° |
| 2026-04-25 10:48 | 61.15637 | -146.14967 | 29423 ft | 315 kts | 195° |
| 2026-04-25 10:49 | 61.13571 | -146.16377 | 29034 ft | 310 kts | 195° |
| 2026-04-25 10:49 | 61.12221 | -146.17298 | 28779 ft | 307 kts | 195° |
| 2026-04-25 10:49 | 61.09536 | -146.19122 | 28273 ft | 301 kts | 195° |
| 2026-04-25 10:49 | 61.07555 | -146.20462 | 27900 ft | 299 kts | 195° |
| 2026-04-25 10:50 | 61.05524 | -146.21827 | 27520 ft | 312 kts | 195° |
| 2026-04-25 10:50 | 61.03476 | -146.23210 | 27128 ft | 307 kts | 195° |
| 2026-04-25 10:50 | 61.01459 | -146.24577 | 26747 ft | 303 kts | 195° |
| 2026-04-25 10:50 | 60.99472 | -146.25920 | 26368 ft | 298 kts | 195° |
| 2026-04-25 10:51 | 60.97514 | -146.27238 | 25995 ft | 294 kts | 195° |
| 2026-04-25 10:51 | 60.95585 | -146.28533 | 25629 ft | 290 kts | 195° |
| 2026-04-25 10:51 | 60.93610 | -146.29851 | 25258 ft | 304 kts | 195° |
| 2026-04-25 10:51 | 60.91611 | -146.31190 | 24874 ft | 301 kts | 195° |
| 2026-04-25 10:52 | 60.90272 | -146.32089 | 24620 ft | 297 kts | 195° |
| 2026-04-25 10:52 | 60.88322 | -146.33398 | 24243 ft | 293 kts | 195° |
| 2026-04-25 10:52 | 60.86399 | -146.34685 | 23880 ft | 288 kts | 195° |
| 2026-04-25 10:52 | 60.83892 | -146.36357 | 23405 ft | 286 kts | 195° |
| 2026-04-25 10:53 | 60.82582 | -146.37224 | 23159 ft | 299 kts | 195° |
| 2026-04-25 10:53 | 60.80607 | -146.38534 | 22781 ft | 296 kts | 195° |
| 2026-04-25 10:53 | 60.78666 | -146.39828 | 22411 ft | 291 kts | 195° |
| 2026-04-25 10:53 | 60.76753 | -146.41103 | 22047 ft | 287 kts | 195° |
| 2026-04-25 10:54 | 60.74873 | -146.42351 | 21689 ft | 282 kts | 195° |
| 2026-04-25 10:54 | 60.72979 | -146.43601 | 21334 ft | 294 kts | 195° |
| 2026-04-25 10:54 | 60.71028 | -146.44886 | 20962 ft | 294 kts | 195° |
| 2026-04-25 10:54 | 60.69103 | -146.46160 | 20594 ft | 288 kts | 195° |
| 2026-04-25 10:55 | 60.67212 | -146.47411 | 20235 ft | 283 kts | 195° |
| 2026-04-25 10:55 | 60.65349 | -146.48639 | 19885 ft | 284 kts | 195° |
| 2026-04-25 10:55 | 60.63415 | -146.49906 | 19517 ft | 294 kts | 195° |
| 2026-04-25 10:55 | 60.61486 | -146.51174 | 19151 ft | 289 kts | 196° |
| 2026-04-25 10:56 | 60.59590 | -146.52422 | 18790 ft | 283 kts | 196° |
| 2026-04-25 10:56 | 60.57733 | -146.53642 | 18518 ft | 276 kts | 196° |
| 2026-04-25 10:56 | 60.55868 | -146.54860 | 18420 ft | 291 kts | 195° |
| 2026-04-25 10:56 | 60.53876 | -146.56152 | 18293 ft | 310 kts | 196° |
| 2026-04-25 10:57 | 60.51788 | -146.57513 | 18150 ft | 315 kts | 196° |
| 2026-04-25 10:57 | 60.49731 | -146.59024 | 18000 ft | 318 kts | 205° |
| 2026-04-25 10:57 | 60.48051 | -146.61995 | 17810 ft | 329 kts | 230° |
| 2026-04-25 10:57 | 60.47148 | -146.66385 | 17225 ft | 342 kts | 256° |
| 2026-04-25 10:58 | 60.47285 | -146.71184 | 16652 ft | 355 kts | 282° |
| 2026-04-25 10:58 | 60.48535 | -146.75625 | 16061 ft | 367 kts | 309° |
| 2026-04-25 10:58 | 60.50648 | -146.78564 | 15475 ft | 374 kts | 336° |
| 2026-04-25 10:58 | 60.53187 | -146.79783 | 14884 ft | 376 kts | 353° |
| 2026-04-25 10:59 | 60.55790 | -146.79909 | 14397 ft | 373 kts | 0° |
| 2026-04-25 10:59 | 60.58360 | -146.79779 | 13975 ft | 365 kts | 359° |
| 2026-04-25 10:59 | 60.60865 | -146.79965 | 13607 ft | 356 kts | 354° |
| 2026-04-25 10:59 | 60.63298 | -146.80494 | 13245 ft | 347 kts | 351° |
| 2026-04-25 11:00 | 60.65661 | -146.81116 | 12897 ft | 338 kts | 351° |
| 2026-04-25 11:00 | 60.67968 | -146.81646 | 12560 ft | 329 kts | 352° |
| 2026-04-25 11:00 | 60.70223 | -146.82061 | 12232 ft | 322 kts | 353° |
| 2026-04-25 11:00 | 60.72438 | -146.82430 | 11911 ft | 317 kts | 353° |
| 2026-04-25 11:01 | 60.74627 | -146.82810 | 11593 ft | 314 kts | 353° |
| 2026-04-25 11:01 | 60.76795 | -146.83215 | 11279 ft | 312 kts | 353° |
| 2026-04-25 11:01 | 60.78954 | -146.83633 | 10965 ft | 310 kts | 353° |
| 2026-04-25 11:01 | 60.81098 | -146.84045 | 10653 ft | 308 kts | 353° |
| 2026-04-25 11:02 | 60.83223 | -146.84448 | 10343 ft | 306 kts | 353° |
| 2026-04-25 11:02 | 60.85334 | -146.84844 | 10109 ft | 301 kts | 354° |
| 2026-04-25 11:02 | 60.87373 | -146.85226 | 10009 ft | 290 kts | 354° |
| 2026-04-25 11:02 | 60.89334 | -146.85595 | 9890 ft | 277 kts | 354° |
| 2026-04-25 11:03 | 60.91255 | -146.85961 | 9448 ft | 277 kts | 354° |
| 2026-04-25 11:03 | 60.93174 | -146.86327 | 9029 ft | 276 kts | 354° |
| 2026-04-25 11:03 | 60.95074 | -146.86689 | 8623 ft | 271 kts | 354° |
| 2026-04-25 11:03 | 60.96910 | -146.87038 | 8243 ft | 260 kts | 354° |
| 2026-04-25 11:04 | 60.98658 | -146.87371 | 8068 ft | 242 kts | 354° |
| 2026-04-25 11:04 | 61.00300 | -146.87684 | 8014 ft | 233 kts | 354° |
| 2026-04-25 11:04 | 61.01891 | -146.87988 | 7937 ft | 227 kts | 355° |
| 2026-04-25 11:04 | 61.02946 | -146.88189 | 7881 ft | 225 kts | 354° |
| 2026-04-25 11:05 | 61.04983 | -146.87868 | 7781 ft | 223 kts | 30° |
| 2026-04-25 11:05 | 61.06039 | -146.85612 | 7630 ft | 221 kts | 65° |
| 2026-04-25 11:05 | 61.06523 | -146.82660 | 7378 ft | 214 kts | 81° |
| 2026-04-25 11:05 | 61.06782 | -146.79676 | 7127 ft | 203 kts | 83° |
| 2026-04-25 11:06 | 61.07034 | -146.76855 | 6893 ft | 197 kts | 81° |
| 2026-04-25 11:06 | 61.07331 | -146.74125 | 6673 ft | 193 kts | 79° |
| 2026-04-25 11:06 | 61.07652 | -146.71461 | 6473 ft | 189 kts | 78° |
| 2026-04-25 11:06 | 61.07975 | -146.68848 | 6259 ft | 185 kts | 78° |
| 2026-04-25 11:07 | 61.08287 | -146.66322 | 6057 ft | 178 kts | 78° |
| 2026-04-25 11:07 | 61.08592 | -146.63833 | 5876 ft | 179 kts | 79° |
| 2026-04-25 11:07 | 61.08893 | -146.61352 | 5665 ft | 178 kts | 78° |
| 2026-04-25 11:07 | 61.09194 | -146.58869 | 5439 ft | 178 kts | 78° |
| 2026-04-25 11:08 | 61.09502 | -146.56322 | 4917 ft | 184 kts | 78° |
| 2026-04-25 11:08 | 61.09805 | -146.53818 | 4392 ft | 175 kts | 78° |
| 2026-04-25 11:08 | 61.10094 | -146.51419 | 3904 ft | 170 kts | 78° |
| 2026-04-25 11:08 | 61.10379 | -146.49050 | 3428 ft | 168 kts | 78° |
| 2026-04-25 11:09 | 61.10660 | -146.46712 | 2963 ft | 168 kts | 77° |
| 2026-04-25 11:09 | 61.10938 | -146.44402 | 2500 ft | 165 kts | 77° |
| 2026-04-25 11:09 | 61.11217 | -146.42083 | 2046 ft | 166 kts | 77° |
| 2026-04-25 11:09 | 61.11491 | -146.39809 | 1583 ft | 160 kts | 76° |
| 2026-04-25 11:10 | 61.11856 | -146.37708 | 1208 ft | 153 kts | 65° |
| 2026-04-25 11:10 | 61.12165 | -146.36407 | 1002 ft | 151 kts | 63° |
| 2026-04-25 11:10 | 61.12707 | -146.33829 | 626 ft | 141 kts | 73° |
| 2026-04-25 11:10 | 61.12891 | -146.31798 | 435 ft | 148 kts | 83° |
| 2026-04-25 11:11 | 61.13036 | -146.29753 | 368 ft | 141 kts | 81° |
| 2026-04-25 11:11 | 61.13180 | -146.27773 | 184 ft | 138 kts | 81° |
| 2026-04-25 11:11 | 61.13324 | -146.25840 | 96 ft | 132 kts | 81° |
| 2026-04-25 11:11 | 61.13431 | -146.24383 | 84 ft | 58 kts | 82° |
| 2026-04-25 11:12 | 61.13451 | -146.23938 | 84 ft | 17 kts | 92° |
| 2026-04-25 11:12 | 61.13471 | -146.23885 | 84 ft | 4 kts | 309° |
| 2026-04-25 11:12 | 61.13467 | -146.23971 | 84 ft | 9 kts | 261° |
| 2026-04-25 11:12 | 61.13450 | -146.24140 | 84 ft | 15 kts | 261° |
| 2026-04-25 11:13 | 61.13438 | -146.24364 | 84 ft | 11 kts | 255° |
| 2026-04-25 11:13 | 61.13395 | -146.24400 | 84 ft | 7 kts | 177° |
| 2026-04-25 11:13 | 61.13337 | -146.24384 | 84 ft | 9 kts | 172° |
| 2026-04-25 11:13 | 61.13272 | -146.24358 | 84 ft | 9 kts | 145° |
| 2026-04-25 11:14 | 61.13253 | -146.24225 | 84 ft | 11 kts | 80° |
| 2026-04-25 11:14 | 61.13264 | -146.24069 | 84 ft | 7 kts | 102° |
| 2026-04-25 11:14 | 61.13231 | -146.24029 | 84 ft | 7 kts | 171° |
| 2026-04-25 11:14 | 61.13194 | -146.24065 | 84 ft | 6 kts | 233° |
| 2026-04-25 11:15 | 61.13192 | -146.24137 | 84 ft | 3 kts | 309° |
| 2026-04-25 11:15 | 61.13192 | -146.24139 | 84 ft | 0 kts | 309° |
| 2026-04-25 11:41 | 61.13195 | -146.24147 | 83 ft | 2 kts | 309° |
| 2026-04-25 11:41 | 61.13216 | -146.24200 | 83 ft | 7 kts | 309° |
| 2026-04-25 11:41 | 61.13245 | -146.24294 | 83 ft | 9 kts | 296° |
| 2026-04-25 11:42 | 61.13297 | -146.24371 | 83 ft | 10 kts | 350° |
| 2026-04-25 11:42 | 61.13373 | -146.24391 | 83 ft | 12 kts | 356° |
| 2026-04-25 11:42 | 61.13434 | -146.24278 | 83 ft | 14 kts | 79° |
| 2026-04-25 11:42 | 61.13452 | -146.24072 | 83 ft | 15 kts | 80° |
| 2026-04-25 11:43 | 61.13485 | -146.23639 | 83 ft | 17 kts | 81° |
| 2026-04-25 11:43 | 61.13503 | -146.23384 | 83 ft | 19 kts | 82° |
| 2026-04-25 11:43 | 61.13522 | -146.23118 | 83 ft | 18 kts | 82° |